»·PEaware :: N342LP KLAX-KSAN

N342LP :: KLAX-KSAN

FLIGHT INFORMATION

Flight Status: Arrived
Operator: Privately registered:
United States
More flights under this callsign
Pilot: Anonymous 31808 (31808)
Aircraft: CESSNA 172 SKYHAWK
(C172)
More flights by this aircraft type
Origin: KLAX Los Angeles Intl
United States
Destination: KSAN San Diego Intl-Lindbergh
United States
More flights between these airports :: More routes between these airports
Route: SLI V23 MIDDS V165 DANAH V165 OCN HURSI V363 MZB
File this flight plan on PilotEdge
Remarks:
Altitude:
(Current/Filed)
5,500ft
Speed:
(Current/Filed)
110kts
Departed: 17-Oct-20 03:33 PM
Arrived: 17-Oct-20 04:48 PM
Distance/Time
Traveled:
95nm/1:15
Distance/Time
To Go:
Arrived

Flight Plot

Page will automatically refresh every two minutes.

Flight plan parsing failed; only flown route is shown


Map Options




Map Legend


Flown Route
Filed Route
Departure Airport
Arrival Airport
Navaid (VOR, NDB)
Fix

Horizontal Profiles

Position Reports

Time Latitude Longitude Heading Altitude Ground
Speed
17-Oct-20 14:52 33.933778 -118.389008 173 120ft 0kts
17-Oct-20 14:53 33.933778 -118.389008 173 120ft 0kts
17-Oct-20 14:54 33.933778 -118.389008 173 120ft 0kts
17-Oct-20 14:55 33.933778 -118.389008 173 120ft 0kts
17-Oct-20 14:56 33.933778 -118.389008 173 120ft 0kts
17-Oct-20 14:57 33.933778 -118.389008 173 120ft 0kts
17-Oct-20 14:58 33.933778 -118.389008 173 120ft 0kts
17-Oct-20 14:59 33.933778 -118.389008 173 120ft 0kts
17-Oct-20 15:00 33.933778 -118.389008 173 120ft 0kts
17-Oct-20 15:01 33.933778 -118.389008 173 120ft 0kts
17-Oct-20 15:02 33.933778 -118.389008 173 120ft 0kts
17-Oct-20 15:03 33.933778 -118.389008 173 120ft 0kts
17-Oct-20 15:04 33.933778 -118.389008 173 120ft 0kts
17-Oct-20 15:04 33.933778 -118.389008 173 120ft 0kts
17-Oct-20 15:06 33.933778 -118.389008 173 120ft 0kts
17-Oct-20 15:06 33.933778 -118.389008 173 120ft 0kts
17-Oct-20 15:08 33.933778 -118.389008 173 120ft 0kts
17-Oct-20 15:08 33.933778 -118.389008 173 120ft 0kts
17-Oct-20 15:10 33.933778 -118.389008 173 120ft 0kts
17-Oct-20 15:10 33.933778 -118.389008 173 120ft 0kts
17-Oct-20 15:11 33.933778 -118.389008 173 120ft 0kts
17-Oct-20 15:12 33.933778 -118.389008 173 120ft 0kts
17-Oct-20 15:13 33.933778 -118.389008 173 120ft 0kts
17-Oct-20 15:14 33.933778 -118.389008 173 120ft 0kts
17-Oct-20 15:15 33.933778 -118.389008 173 120ft 0kts
17-Oct-20 15:16 33.933778 -118.389008 173 120ft 0kts
17-Oct-20 15:17 33.933778 -118.389008 173 120ft 0kts
17-Oct-20 15:18 33.933778 -118.389008 173 120ft 0kts
17-Oct-20 15:19 33.933778 -118.389008 173 120ft 0kts
17-Oct-20 15:20 33.933778 -118.389008 173 120ft 0kts
17-Oct-20 15:21 33.933778 -118.389008 173 120ft 0kts
17-Oct-20 15:22 33.933778 -118.389008 173 120ft 0kts
17-Oct-20 15:23 33.933778 -118.389008 173 120ft 0kts
17-Oct-20 15:24 33.933778 -118.389008 173 120ft 0kts
17-Oct-20 15:25 33.933778 -118.389008 173 120ft 0kts
17-Oct-20 15:26 33.933778 -118.389008 173 120ft 0kts
17-Oct-20 15:27 33.933827 -118.388840 16 120ft 9kts
17-Oct-20 15:28 33.935970 -118.384265 80 120ft 22kts
17-Oct-20 15:29 33.936466 -118.382774 2 120ft 0kts
17-Oct-20 15:30 33.936466 -118.382774 2 120ft 0kts
17-Oct-20 15:31 33.936466 -118.382774 2 120ft 0kts
17-Oct-20 15:32 33.937029 -118.386541 265 120ft 57kts
17-Oct-20 15:33 33.934050 -118.415539 262 584ft 96kts
17-Oct-20 15:34 33.916877 -118.432969 165 1053ft 114kts
17-Oct-20 15:35 33.887946 -118.418838 164 1574ft 110kts
17-Oct-20 15:36 33.857976 -118.409622 170 1998ft 111kts
17-Oct-20 15:37 33.827376 -118.401615 173 2337ft 112kts
17-Oct-20 15:38 33.796504 -118.398210 183 2694ft 108kts
17-Oct-20 15:39 33.766842 -118.396191 173 3303ft 108kts
17-Oct-20 15:40 33.736922 -118.386993 149 3745ft 116kts
17-Oct-20 15:41 33.721651 -118.352681 117 4156ft 119kts
17-Oct-20 15:42 33.711486 -118.315350 104 4580ft 117kts
17-Oct-20 15:43 33.703142 -118.276995 103 4947ft 119kts
17-Oct-20 15:44 33.692662 -118.238640 104 5211ft 122kts
17-Oct-20 15:45 33.688736 -118.198684 93 5518ft 121kts
17-Oct-20 15:46 33.688501 -118.157959 87 5584ft 118kts
17-Oct-20 15:47 33.691270 -118.118191 82 5472ft 116kts
17-Oct-20 15:48 33.691995 -118.079892 111 5336ft 108kts
17-Oct-20 15:49 33.675853 -118.051064 130 5453ft 103kts
17-Oct-20 15:50 33.657173 -118.025376 139 5592ft 101kts
17-Oct-20 15:51 33.639095 -117.999050 125 5675ft 103kts
17-Oct-20 15:52 33.625314 -117.967978 124 5671ft 107kts
17-Oct-20 15:53 33.604538 -117.940888 143 5507ft 109kts
17-Oct-20 15:54 33.589780 -117.909598 120 5434ft 108kts
17-Oct-20 15:55 33.572766 -117.880272 114 5357ft 109kts
17-Oct-20 15:56 33.561348 -117.846592 114 5350ft 109kts
17-Oct-20 15:57 33.548818 -117.813875 118 5335ft 109kts
17-Oct-20 15:58 33.534792 -117.782019 115 5406ft 106kts
17-Oct-20 15:59 33.522000 -117.749350 115 5520ft 108kts
17-Oct-20 16:00 33.505593 -117.719566 139 5591ft 107kts
17-Oct-20 16:01 33.484022 -117.693662 131 5586ft 111kts
17-Oct-20 16:02 33.465085 -117.664330 139 5563ft 112kts
17-Oct-20 16:03 33.441404 -117.639117 138 5489ft 116kts
17-Oct-20 16:04 33.419108 -117.610899 133 5386ft 116kts
17-Oct-20 16:05 33.395768 -117.584230 143 5319ft 116kts
17-Oct-20 16:06 33.373019 -117.558325 139 5428ft 108kts
17-Oct-20 16:07 33.352424 -117.530795 128 5523ft 112kts
17-Oct-20 16:08 33.333022 -117.501604 136 5558ft 112kts
17-Oct-20 16:09 33.309748 -117.477208 142 5519ft 111kts
17-Oct-20 16:10 33.284543 -117.455982 148 5473ft 110kts
17-Oct-20 16:11 33.260649 -117.432941 133 5418ft 111kts
17-Oct-20 16:12 33.234983 -117.413364 157 5355ft 110kts
17-Oct-20 16:13 33.207180 -117.398271 156 5322ft 109kts
17-Oct-20 16:14 33.180138 -117.381442 158 5286ft 109kts
17-Oct-20 16:15 33.154011 -117.363207 160 5327ft 108kts
17-Oct-20 16:16 33.126381 -117.352590 170 5560ft 105kts
17-Oct-20 16:17 33.097674 -117.345159 168 5653ft 106kts
17-Oct-20 16:18 33.069145 -117.336733 170 5737ft 106kts
17-Oct-20 16:19 33.038288 -117.327750 171 5366ft 114kts
17-Oct-20 16:20 33.008031 -117.320421 173 5247ft 107kts
17-Oct-20 16:21 32.979015 -117.313182 168 5285ft 102kts
17-Oct-20 16:22 32.952652 -117.299027 151 5456ft 103kts
17-Oct-20 16:23 32.927871 -117.281470 160 5640ft 103kts
17-Oct-20 16:24 32.898702 -117.271619 172 5589ft 106kts
17-Oct-20 16:25 32.887486 -117.283514 332 5232ft 117kts
17-Oct-20 16:26 32.918173 -117.292717 43 4145ft 120kts
17-Oct-20 16:27 32.895154 -117.278548 172 3454ft 103kts
17-Oct-20 16:28 32.869030 -117.270923 167 3520ft 96kts
17-Oct-20 16:29 32.843820 -117.259895 157 3553ft 96kts
17-Oct-20 16:30 32.823451 -117.239453 123 3638ft 99kts
17-Oct-20 16:31 32.808736 -117.211464 130 3644ft 100kts
17-Oct-20 16:32 32.794371 -117.183090 108 3684ft 101kts
17-Oct-20 16:33 32.787112 -117.150900 88 3712ft 99kts
17-Oct-20 16:34 32.790034 -117.118157 82 3698ft 102kts
17-Oct-20 16:35 32.801293 -117.089079 27 3607ft 98kts
17-Oct-20 16:36 32.824105 -117.085018 280 3564ft 96kts
17-Oct-20 16:37 32.820134 -117.114743 256 3616ft 88kts
17-Oct-20 16:38 32.813707 -117.145348 257 3364ft 103kts
17-Oct-20 16:39 32.807981 -117.175118 260 3473ft 81kts
17-Oct-20 16:40 32.803931 -117.201746 260 3570ft 82kts
17-Oct-20 16:42 32.803145 -117.231605 258 3333ft 102kts
17-Oct-20 16:43 32.777174 -117.223872 160 2305ft 112kts
17-Oct-20 16:44 32.754196 -117.202583 102 1438ft 102kts
17-Oct-20 16:45 32.748066 -117.170219 106 1224ft 97kts
17-Oct-20 16:46 32.735402 -117.147243 187 1154ft 85kts
17-Oct-20 16:47 32.728940 -117.171092 285 376ft 87kts
17-Oct-20 16:48 32.733500 -117.188105 335 17ft 15kts
17-Oct-20 16:49 32.734119 -117.187900 51 16ft 0kts
17-Oct-20 16:50 32.734407 -117.185486 18 18ft 6kts

Navigation Log

Ident Type
Flight plan parsing failed, navigation log unavailable